Time;durP1;ratioP1;P1;durP2;ratioP2;P2;SDS_P1;SDS_P2;PMS_P1;PMS_P2;Temp;Humidity;BMP_temperature;BMP_pressure;BME280_temperature;BME280_humidity;BME280_pressure;Samples;Min_cycle;Max_cycle;Signal;HPM_P1;HPM_P2
2022/10/22 00:01:54;;;;;;;;;;;19.00;99.10;;;;;;4956005;29;20038;-65
2022/10/22 00:04:19;;;;;;;;;;;19.00;99.00;;;;;;4956424;28;19937;-64
2022/10/22 00:06:45;;;;;;;;;;;19.00;99.10;;;;;;4938531;29;20274;-65
2022/10/22 00:09:11;;;;;;;;;;;18.80;98.90;;;;;;4938741;29;19974;-65
2022/10/22 00:11:37;;;;;;;;;;;19.00;99.20;;;;;;4956320;29;19933;-66
2022/10/22 00:14:02;;;;;;;;;;;19.00;98.90;;;;;;4938568;29;20359;-63
2022/10/22 00:16:28;;;;;;;;;;;18.80;98.80;;;;;;4939052;29;19927;-64
2022/10/22 00:18:54;;;;;;;;;;;18.80;98.80;;;;;;4956168;29;19934;-64
2022/10/22 00:21:19;;;;;;;;;;;19.10;98.90;;;;;;4959310;28;19932;-64
2022/10/22 00:23:45;;;;;;;;;;;18.80;98.80;;;;;;4961125;28;19933;-64
2022/10/22 00:26:11;;;;;;;;;;;18.80;98.80;;;;;;4954551;28;19934;-65
2022/10/22 00:28:36;;;;;;;;;;;18.80;98.80;;;;;;4937503;28;19926;-65
2022/10/22 00:31:02;;;;;;;;;;;18.70;98.70;;;;;;4955024;28;20012;-65
2022/10/22 00:33:28;;;;;;;;;;;18.90;98.80;;;;;;4944411;28;19927;-65
2022/10/22 00:35:53;;;;;;;;;;;18.80;98.70;;;;;;4943367;28;20013;-65
2022/10/22 00:38:19;;;;;;;;;;;19.10;98.80;;;;;;4955178;28;19930;-64
2022/10/22 00:40:44;;;;;;;;;;;18.70;98.70;;;;;;4955366;28;19933;-65
2022/10/22 00:43:10;;;;;;;;;;;18.90;98.70;;;;;;4954847;28;19930;-63
2022/10/22 00:45:36;;;;;;;;;;;18.90;98.70;;;;;;4930810;29;19927;-66
2022/10/22 00:48:09;;;;;;;;;;;18.70;98.60;;;;;;4953972;28;20280;-64
2022/10/22 00:50:38;;;;;;;;;;;18.90;98.60;;;;;;4957323;28;19974;-65
2022/10/22 00:53:05;;;;;;;;;;;18.80;98.60;;;;;;4941794;29;19981;-64
2022/10/22 00:55:31;;;;;;;;;;;;;;;;;;4959021;28;19931;-63
2022/10/22 00:57:57;;;;;;;;;;;18.80;98.60;;;;;;4959161;28;19930;-64
2022/10/22 01:00:23;;;;;;;;;;;18.70;98.60;;;;;;4941425;28;19929;-65
2022/10/22 01:02:48;;;;;;;;;;;19.10;98.60;;;;;;4957873;28;19974;-64
2022/10/22 01:05:14;;;;;;;;;;;18.80;98.60;;;;;;4942395;29;19926;-65
2022/10/22 01:07:41;;;;;;;;;;;18.80;98.60;;;;;;4957614;28;20345;-65
2022/10/22 01:10:24;;;;;;;;;;;18.70;98.50;;;;;;4941550;29;20396;-65
2022/10/22 01:12:59;;;;;;;;;;;18.80;98.60;;;;;;4940684;28;19935;-62
2022/10/22 01:15:37;;;;;;;;;;;18.90;98.60;;;;;;4962365;28;19926;-64
2022/10/22 01:18:02;;;;;;;;;;;18.60;98.50;;;;;;4933809;28;19949;-64
2022/10/22 01:20:31;;;;;;;;;;;18.90;98.60;;;;;;4958985;29;20024;-64
2022/10/22 01:23:01;;;;;;;;;;;18.70;98.50;;;;;;4957717;28;19927;-64
2022/10/22 01:25:33;;;;;;;;;;;18.90;98.50;;;;;;4941251;29;20017;-64
2022/10/22 01:28:16;;;;;;;;;;;18.80;98.50;;;;;;4958214;28;19981;-64
2022/10/22 01:30:42;;;;;;;;;;;18.90;98.50;;;;;;4957900;28;20383;-64
2022/10/22 01:33:07;;;;;;;;;;;18.80;98.50;;;;;;4949384;29;19978;-65
2022/10/22 01:35:37;;;;;;;;;;;18.70;98.40;;;;;;4941246;29;19965;-65
2022/10/22 01:38:04;;;;;;;;;;;18.70;98.40;;;;;;4940852;29;19926;-64
2022/10/22 01:40:30;;;;;;;;;;;18.80;98.40;;;;;;4940400;28;19930;-64
2022/10/22 01:42:56;;;;;;;;;;;18.80;98.40;;;;;;4956256;28;20009;-64
2022/10/22 01:45:22;;;;;;;;;;;18.90;98.50;;;;;;4958071;28;19973;-64
2022/10/22 01:47:55;;;;;;;;;;;18.80;98.40;;;;;;4939973;29;20415;-63
2022/10/22 01:50:33;;;;;;;;;;;19.00;98.50;;;;;;4924770;29;19933;-63
2022/10/22 01:53:08;;;;;;;;;;;18.90;98.40;;;;;;4958411;28;19982;-63
2022/10/22 01:55:37;;;;;;;;;;;19.00;98.40;;;;;;4941034;28;19926;-63
2022/10/22 01:58:05;;;;;;;;;;;18.60;98.30;;;;;;4957499;29;19933;-64
2022/10/22 02:00:31;;;;;;;;;;;19.00;98.40;;;;;;4955616;28;19926;-64
2022/10/22 02:02:57;;;;;;;;;;;19.00;98.40;;;;;;4937753;29;20018;-64
2022/10/22 02:05:23;;;;;;;;;;;;;;;;;;4921155;29;19931;-64
2022/10/22 02:07:50;;;;;;;;;;;18.60;98.30;;;;;;4938029;29;19927;-63
2022/10/22 02:10:16;;;;;;;;;;;18.90;98.40;;;;;;4893244;29;19926;-64
2022/10/22 02:12:42;;;;;;;;;;;18.70;98.30;;;;;;4920875;29;19934;-63
2022/10/22 02:15:08;;;;;;;;;;;18.80;98.40;;;;;;4921146;29;19927;-64
2022/10/22 02:17:33;;;;;;;;;;;;;;;;;;4920096;29;19923;-62
2022/10/22 02:20:00;;;;;;;;;;;18.90;98.40;;;;;;4938167;29;19930;-63
2022/10/22 02:22:25;;;;;;;;;;;18.70;98.30;;;;;;4934358;29;19950;-64
2022/10/22 02:24:51;;;;;;;;;;;18.80;98.30;;;;;;4901594;29;19927;-64
2022/10/22 02:27:21;;;;;;;;;;;18.70;98.30;;;;;;4921193;29;19933;-64
2022/10/22 02:30:04;;;;;;;;;;;18.70;98.30;;;;;;4924040;29;19965;-64
2022/10/22 02:32:48;;;;;;;;;;;19.00;98.40;;;;;;4920804;29;19927;-65
2022/10/22 02:35:14;;;;;;;;;;;18.80;98.30;;;;;;4938641;29;19927;-64
2022/10/22 02:37:40;;;;;;;;;;;18.80;98.30;;;;;;4918878;29;19938;-63
2022/10/22 02:40:06;;;;;;;;;;;18.60;98.20;;;;;;4920905;29;20382;-64
2022/10/22 02:42:31;;;;;;;;;;;18.70;98.30;;;;;;4920721;29;19934;-64
2022/10/22 02:44:57;;;;;;;;;;;18.80;98.40;;;;;;4922387;29;20010;-64
2022/10/22 02:47:22;;;;;;;;;;;18.60;98.20;;;;;;4920556;29;19927;-64
2022/10/22 02:49:48;;;;;;;;;;;18.80;98.20;;;;;;4919726;29;19927;-65
2022/10/22 02:52:13;;;;;;;;;;;18.50;98.10;;;;;;4919495;29;19971;-64
2022/10/22 02:54:39;;;;;;;;;;;18.90;98.20;;;;;;4920386;29;20146;-64
2022/10/22 02:57:05;;;;;;;;;;;18.80;98.20;;;;;;4905323;29;19922;-64
2022/10/22 02:59:30;;;;;;;;;;;18.80;98.20;;;;;;4920400;29;19927;-65
2022/10/22 03:01:56;;;;;;;;;;;19.00;98.20;;;;;;4942571;28;19926;-64
2022/10/22 03:04:21;;;;;;;;;;;18.70;98.10;;;;;;4959127;28;20303;-65
2022/10/22 03:06:48;;;;;;;;;;;18.60;98.10;;;;;;4956799;28;20394;-65
2022/10/22 03:09:13;;;;;;;;;;;18.90;98.20;;;;;;4956586;28;20281;-64
2022/10/22 03:11:39;;;;;;;;;;;19.00;98.20;;;;;;4956673;28;19973;-65
2022/10/22 03:14:04;;;;;;;;;;;18.90;98.20;;;;;;4947719;28;19930;-65
2022/10/22 03:16:30;;;;;;;;;;;18.70;98.10;;;;;;4954938;28;20406;-65
2022/10/22 03:18:56;;;;;;;;;;;18.90;98.10;;;;;;4956400;28;20382;-65
2022/10/22 03:21:21;;;;;;;;;;;18.90;98.10;;;;;;4956783;28;19926;-65
2022/10/22 03:23:47;;;;;;;;;;;18.60;98.10;;;;;;4957278;28;19926;-65
2022/10/22 03:26:12;;;;;;;;;;;18.80;98.10;;;;;;4939235;29;19926;-65
2022/10/22 03:28:38;;;;;;;;;;;18.80;98.10;;;;;;4957284;29;20347;-65
2022/10/22 03:31:04;;;;;;;;;;;;;;;;;;4947545;28;20277;-65
2022/10/22 03:33:30;;;;;;;;;;;19.10;98.20;;;;;;4955896;28;19934;-65
2022/10/22 03:35:55;;;;;;;;;;;18.70;98.00;;;;;;4957847;28;20395;-65
2022/10/22 03:38:21;;;;;;;;;;;18.90;98.10;;;;;;4956007;28;19982;-65
2022/10/22 03:40:46;;;;;;;;;;;18.80;98.00;;;;;;4956283;28;19960;-65
2022/10/22 03:43:12;;;;;;;;;;;18.90;98.00;;;;;;4954803;28;19927;-65
2022/10/22 03:45:38;;;;;;;;;;;18.60;98.00;;;;;;4955968;28;19933;-65
2022/10/22 03:48:03;;;;;;;;;;;18.80;98.00;;;;;;4951141;28;20379;-65
2022/10/22 03:50:29;;;;;;;;;;;18.80;98.00;;;;;;4955951;28;20295;-65
2022/10/22 03:52:56;;;;;;;;;;;19.10;98.10;;;;;;4955598;28;20266;-65
2022/10/22 03:55:22;;;;;;;;;;;18.60;97.90;;;;;;4955694;28;19927;-64
2022/10/22 03:57:48;;;;;;;;;;;18.90;98.00;;;;;;4955672;28;19981;-65
2022/10/22 04:00:17;;;;;;;;;;;18.50;97.90;;;;;;4955709;28;19923;-65
2022/10/22 04:02:43;;;;;;;;;;;18.80;98.00;;;;;;4955366;28;20304;-64
2022/10/22 04:05:09;;;;;;;;;;;18.80;98.00;;;;;;4954461;28;19926;-65
2022/10/22 04:07:35;;;;;;;;;;;18.80;97.90;;;;;;4954572;28;20300;-65
2022/10/22 04:10:01;;;;;;;;;;;18.60;97.90;;;;;;4955519;28;20368;-65
2022/10/22 04:12:27;;;;;;;;;;;18.70;97.90;;;;;;4956270;29;19961;-65
2022/10/22 04:14:53;;;;;;;;;;;18.40;97.80;;;;;;4954621;28;19990;-63
2022/10/22 04:17:18;;;;;;;;;;;18.80;97.90;;;;;;4953388;28;19923;-64
2022/10/22 04:19:44;;;;;;;;;;;18.60;97.90;;;;;;4953620;28;19935;-63
2022/10/22 04:22:10;;;;;;;;;;;18.90;97.90;;;;;;4964731;28;19930;-64
2022/10/22 04:24:36;;;;;;;;;;;18.70;97.90;;;;;;4968897;28;19958;-64
2022/10/22 04:27:02;;;;;;;;;;;18.50;97.70;;;;;;4955388;29;19930;-64
2022/10/22 04:29:28;;;;;;;;;;;18.80;97.90;;;;;;4954934;28;19930;-64
2022/10/22 04:31:54;;;;;;;;;;;18.50;97.80;;;;;;4955939;29;20368;-66
2022/10/22 04:34:20;;;;;;;;;;;18.70;97.80;;;;;;4956022;29;19986;-64
2022/10/22 04:36:46;;;;;;;;;;;18.80;97.80;;;;;;4954018;29;20392;-64
2022/10/22 04:39:13;;;;;;;;;;;18.90;97.90;;;;;;4944842;28;19981;-65
2022/10/22 04:41:39;;;;;;;;;;;18.60;97.80;;;;;;4922820;29;20369;-64
2022/10/22 04:44:06;;;;;;;;;;;18.80;97.80;;;;;;4954781;28;19927;-64
2022/10/22 04:46:32;;;;;;;;;;;18.50;97.70;;;;;;4930531;29;19933;-64
2022/10/22 04:48:58;;;;;;;;;;;18.40;97.70;;;;;;4936600;28;20008;-64
2022/10/22 04:51:24;;;;;;;;;;;18.60;97.80;;;;;;4921997;29;20336;-65
2022/10/22 04:53:50;;;;;;;;;;;18.80;97.80;;;;;;4955089;28;20021;-63
2022/10/22 04:56:19;;;;;;;;;;;18.70;97.80;;;;;;4955612;28;20078;-64
2022/10/22 04:58:45;;;;;;;;;;;18.50;97.70;;;;;;4933567;29;19927;-64
2022/10/22 05:01:11;;;;;;;;;;;18.70;97.80;;;;;;4936856;29;19952;-65
2022/10/22 05:03:40;;;;;;;;;;;18.60;97.70;;;;;;4956089;29;19926;-65
2022/10/22 05:06:05;;;;;;;;;;;18.80;97.80;;;;;;4953734;28;19930;-64
2022/10/22 05:08:31;;;;;;;;;;;18.90;97.80;;;;;;4954219;28;20284;-64
2022/10/22 05:10:57;;;;;;;;;;;18.80;97.80;;;;;;4920349;28;20391;-63
2022/10/22 05:13:22;;;;;;;;;;;18.80;97.80;;;;;;4955290;28;19930;-64
2022/10/22 05:15:48;;;;;;;;;;;18.80;97.80;;;;;;4954042;28;19927;-64
2022/10/22 05:18:13;;;;;;;;;;;18.60;97.70;;;;;;4953921;28;20006;-63
2022/10/22 05:20:39;;;;;;;;;;;18.70;97.80;;;;;;4953533;28;19965;-63
2022/10/22 05:23:05;;;;;;;;;;;18.70;97.80;;;;;;4937415;28;19930;-65
2022/10/22 05:25:31;;;;;;;;;;;18.80;97.80;;;;;;4954282;28;19926;-63
2022/10/22 05:27:56;;;;;;;;;;;18.80;97.90;;;;;;4938069;29;19990;-64
2022/10/22 05:30:22;;;;;;;;;;;18.80;97.80;;;;;;4954958;28;19926;-64
2022/10/22 05:32:47;;;;;;;;;;;18.70;97.70;;;;;;4952828;28;19927;-63
2022/10/22 05:35:13;;;;;;;;;;;18.80;97.80;;;;;;4954766;28;20284;-65
2022/10/22 05:37:39;;;;;;;;;;;18.90;97.80;;;;;;4940349;29;19976;-64
2022/10/22 05:40:05;;;;;;;;;;;18.70;97.70;;;;;;4957987;28;20033;-64
2022/10/22 05:42:31;;;;;;;;;;;;;;;;;;4955428;28;20396;-63
2022/10/22 05:44:57;;;;;;;;;;;18.80;97.80;;;;;;4956689;28;20065;-64
2022/10/22 05:47:23;;;;;;;;;;;18.70;97.70;;;;;;4957239;28;20070;-64
2022/10/22 05:49:48;;;;;;;;;;;18.60;97.70;;;;;;4956737;28;19926;-64
2022/10/22 05:52:14;;;;;;;;;;;18.80;97.80;;;;;;4956426;28;19926;-64
2022/10/22 05:54:40;;;;;;;;;;;18.70;97.70;;;;;;4955989;28;20017;-64
2022/10/22 05:57:06;;;;;;;;;;;18.70;97.70;;;;;;4958740;29;19974;-64
2022/10/22 05:59:32;;;;;;;;;;;18.70;97.70;;;;;;4940562;29;20423;-65
2022/10/22 06:01:58;;;;;;;;;;;18.60;97.70;;;;;;4957407;28;20274;-65
2022/10/22 06:04:24;;;;;;;;;;;19.00;97.80;;;;;;4961450;28;19926;-65
2022/10/22 06:06:50;;;;;;;;;;;18.80;97.70;;;;;;4958158;29;19930;-66
2022/10/22 06:09:23;;;;;;;;;;;18.60;97.60;;;;;;4940602;29;19926;-65
2022/10/22 06:11:49;;;;;;;;;;;18.80;97.60;;;;;;4925303;29;19927;-66
2022/10/22 06:14:15;;;;;;;;;;;18.90;97.60;;;;;;4956951;28;20287;-65
2022/10/22 06:16:42;;;;;;;;;;;18.70;97.50;;;;;;4939540;29;19977;-65
2022/10/22 06:19:11;;;;;;;;;;;18.70;97.50;;;;;;4940001;29;19927;-64
2022/10/22 06:21:37;;;;;;;;;;;18.60;97.40;;;;;;4940931;29;20281;-66
2022/10/22 06:24:03;;;;;;;;;;;18.80;97.40;;;;;;4956280;28;19930;-66
2022/10/22 06:26:29;;;;;;;;;;;19.00;97.40;;;;;;4960610;28;19926;-68
2022/10/22 06:28:59;;;;;;;;;;;18.70;97.30;;;;;;4960177;28;20025;-65
2022/10/22 06:31:25;;;;;;;;;;;18.60;97.30;;;;;;4940088;29;20437;-64
2022/10/22 06:33:51;;;;;;;;;;;18.80;97.30;;;;;;4955593;28;20410;-65
2022/10/22 06:36:18;;;;;;;;;;;18.80;97.30;;;;;;4941039;29;19985;-64
2022/10/22 06:38:44;;;;;;;;;;;18.80;97.20;;;;;;4952362;28;20300;-66
2022/10/22 06:41:11;;;;;;;;;;;18.50;97.10;;;;;;4955656;28;19937;-64
2022/10/22 06:43:37;;;;;;;;;;;18.50;97.10;;;;;;4939687;29;19926;-64
2022/10/22 06:46:06;;;;;;;;;;;18.50;97.00;;;;;;4957683;28;19948;-65
2022/10/22 06:48:32;;;;;;;;;;;18.90;97.10;;;;;;4939646;29;19926;-66
2022/10/22 06:51:01;;;;;;;;;;;18.50;97.00;;;;;;4936728;29;19927;-65
2022/10/22 06:53:28;;;;;;;;;;;18.60;96.90;;;;;;4921356;29;19934;-66
2022/10/22 06:55:54;;;;;;;;;;;;;;;;;;4937579;29;19933;-65
2022/10/22 06:58:20;;;;;;;;;;;18.60;96.90;;;;;;4957277;29;19937;-64
2022/10/22 07:00:46;;;;;;;;;;;18.80;96.90;;;;;;4923556;29;19961;-65
2022/10/22 07:03:13;;;;;;;;;;;18.90;96.90;;;;;;4940392;29;20384;-64
2022/10/22 07:05:39;;;;;;;;;;;18.80;96.90;;;;;;4940803;29;19927;-66
2022/10/22 07:08:06;;;;;;;;;;;18.80;97.00;;;;;;4956739;28;19933;-65
2022/10/22 07:10:32;;;;;;;;;;;19.10;96.90;;;;;;4954725;28;19926;-65
2022/10/22 07:12:58;;;;;;;;;;;18.80;96.80;;;;;;4955674;28;20300;-64
2022/10/22 07:15:24;;;;;;;;;;;18.70;96.70;;;;;;4959144;28;19926;-65
2022/10/22 07:17:53;;;;;;;;;;;19.00;96.80;;;;;;4955744;28;19930;-64
2022/10/22 07:20:20;;;;;;;;;;;18.90;96.90;;;;;;4939898;29;20351;-71
2022/10/22 07:22:47;;;;;;;;;;;19.00;96.90;;;;;;4940399;29;20172;-70
2022/10/22 07:25:12;;;;;;;;;;;18.90;96.90;;;;;;4956587;28;20328;-66
2022/10/22 07:27:38;;;;;;;;;;;18.90;96.90;;;;;;4956782;29;19940;-71
2022/10/22 07:30:04;;;;;;;;;;;19.00;96.80;;;;;;4973640;28;19926;-70
2022/10/22 07:32:30;;;;;;;;;;;18.90;96.70;;;;;;4957227;28;19934;-67
2022/10/22 07:34:56;;;;;;;;;;;19.20;96.80;;;;;;4956659;29;19926;-66
2022/10/22 07:37:22;;;;;;;;;;;19.20;96.80;;;;;;4955672;28;19974;-66
2022/10/22 07:39:48;;;;;;;;;;;19.10;96.70;;;;;;4956830;29;19934;-70
2022/10/22 07:42:13;;;;;;;;;;;19.10;96.70;;;;;;4957080;29;20460;-71
2022/10/22 07:44:39;;;;;;;;;;;19.10;96.70;;;;;;4956742;29;19926;-71
2022/10/22 07:47:04;;;;;;;;;;;19.40;96.70;;;;;;4966589;28;20299;-70
2022/10/22 07:49:30;;;;;;;;;;;19.40;96.70;;;;;;4955766;28;20361;-72
2022/10/22 07:51:56;;;;;;;;;;;19.30;96.60;;;;;;4956673;29;19927;-68
2022/10/22 07:54:22;;;;;;;;;;;19.30;96.50;;;;;;4956269;29;19958;-69
2022/10/22 07:56:47;;;;;;;;;;;19.50;96.50;;;;;;4955704;28;19982;-73
2022/10/22 07:59:13;;;;;;;;;;;19.30;96.40;;;;;;4937987;29;19927;-72
2022/10/22 08:01:39;;;;;;;;;;;19.30;96.20;;;;;;4956135;29;19926;-72
2022/10/22 08:04:07;;;;;;;;;;;19.40;96.30;;;;;;4973263;28;19926;-68
2022/10/22 08:06:33;;;;;;;;;;;19.40;96.20;;;;;;4954682;29;20025;-68
2022/10/22 08:08:58;;;;;;;;;;;19.50;96.30;;;;;;4953396;28;20049;-67
2022/10/22 08:11:25;;;;;;;;;;;19.50;96.20;;;;;;4952082;28;19926;-65
2022/10/22 08:13:51;;;;;;;;;;;19.60;96.40;;;;;;4939147;29;20269;-69
2022/10/22 08:16:17;;;;;;;;;;;19.40;96.40;;;;;;4956190;29;19955;-69
2022/10/22 08:18:42;;;;;;;;;;;19.50;96.20;;;;;;4922474;28;19934;-68
2022/10/22 08:21:08;;;;;;;;;;;19.60;96.30;;;;;;4963863;28;20411;-69
2022/10/22 08:23:34;;;;;;;;;;;19.10;96.10;;;;;;4955296;28;19927;-69
2022/10/22 08:26:01;;;;;;;;;;;19.40;96.20;;;;;;4955271;29;19934;-67
2022/10/22 08:28:28;;;;;;;;;;;19.40;96.40;;;;;;4938511;29;19933;-69
2022/10/22 08:30:54;;;;;;;;;;;19.60;96.40;;;;;;4937984;28;19941;-66
2022/10/22 08:33:19;;;;;;;;;;;19.30;96.30;;;;;;4955955;29;19926;-66
2022/10/22 08:35:48;;;;;;;;;;;19.50;96.30;;;;;;4923368;29;19926;-69
2022/10/22 08:38:14;;;;;;;;;;;19.60;96.30;;;;;;4937602;29;19930;-66
2022/10/22 08:40:40;;;;;;;;;;;19.30;96.20;;;;;;4954307;28;19978;-68
2022/10/22 08:43:06;;;;;;;;;;;19.70;96.30;;;;;;4923104;29;20009;-67
2022/10/22 08:45:40;;;;;;;;;;;19.30;96.10;;;;;;4937387;28;19929;-67
2022/10/22 08:48:06;;;;;;;;;;;19.60;96.20;;;;;;4937914;29;19986;-66
2022/10/22 08:50:39;;;;;;;;;;;19.40;96.20;;;;;;4955595;29;19930;-66
2022/10/22 08:53:05;;;;;;;;;;;19.40;96.20;;;;;;4956809;28;19926;-67
2022/10/22 08:55:31;;;;;;;;;;;19.30;96.10;;;;;;4965182;28;20352;-66
2022/10/22 08:57:59;;;;;;;;;;;19.60;96.20;;;;;;4937736;29;19926;-67
2022/10/22 09:00:29;;;;;;;;;;;19.30;96.20;;;;;;4955845;29;19926;-66
2022/10/22 09:02:55;;;;;;;;;;;19.30;96.20;;;;;;4923302;29;19970;-66
2022/10/22 09:05:39;;;;;;;;;;;19.50;96.20;;;;;;4936327;29;20396;-65
2022/10/22 09:08:08;;;;;;;;;;;19.60;96.30;;;;;;4928465;29;19938;-66
2022/10/22 09:10:34;;;;;;;;;;;19.30;96.20;;;;;;4930377;29;19933;-66
2022/10/22 09:13:00;;;;;;;;;;;19.50;96.30;;;;;;4948314;29;20372;-65
2022/10/22 09:15:25;;;;;;;;;;;19.40;96.30;;;;;;4942209;29;20010;-66
2022/10/22 09:18:00;;;;;;;;;;;19.30;96.30;;;;;;4959239;29;19934;-65
2022/10/22 09:20:46;;;;;;;;;;;19.60;96.40;;;;;;4958813;29;20381;-66
2022/10/22 09:23:15;;;;;;;;;;;19.20;96.30;;;;;;4941733;29;19934;-66
2022/10/22 09:25:40;;;;;;;;;;;19.40;96.30;;;;;;4959253;29;19978;-66
2022/10/22 09:28:09;;;;;;;;;;;19.80;96.50;;;;;;4941651;29;20388;-67
2022/10/22 09:30:36;;;;;;;;;;;19.50;96.40;;;;;;4938177;29;20299;-67
2022/10/22 09:33:05;;;;;;;;;;;19.40;96.50;;;;;;4963096;28;19926;-70
2022/10/22 09:35:46;;;;;;;;;;;19.50;96.20;;;;;;4941694;29;19927;-65
2022/10/22 09:38:13;;;;;;;;;;;19.50;96.80;;;;;;4923543;29;19927;-66
2022/10/22 09:40:42;;;;;;;;;;;19.90;96.90;;;;;;4949228;29;19933;-65
2022/10/22 09:43:10;;;;;;;;;;;19.60;96.50;;;;;;4940771;29;20003;-66
2022/10/22 09:45:36;;;;;;;;;;;19.60;97.10;;;;;;4954332;28;19988;-69
2022/10/22 09:48:03;;;;;;;;;;;19.50;97.10;;;;;;4967236;28;20025;-66
2022/10/22 09:50:40;;;;;;;;;;;19.80;97.20;;;;;;4925963;29;19927;-66
2022/10/22 09:53:12;;;;;;;;;;;19.60;97.20;;;;;;4941718;29;20292;-68
2022/10/22 09:55:38;;;;;;;;;;;19.70;96.70;;;;;;4945746;28;19977;-68
2022/10/22 09:58:04;;;;;;;;;;;19.60;97.30;;;;;;4943049;29;19933;-69
2022/10/22 10:00:29;;;;;;;;;;;19.80;97.50;;;;;;4958034;29;19930;-67
2022/10/22 10:02:56;;;;;;;;;;;19.80;97.80;;;;;;4958612;28;19927;-71
2022/10/22 10:05:28;;;;;;;;;;;19.60;97.90;;;;;;4956729;28;19937;-67
2022/10/22 10:07:53;;;;;;;;;;;19.80;97.70;;;;;;4939369;29;19934;-68
2022/10/22 10:10:27;;;;;;;;;;;19.70;97.70;;;;;;4957886;29;20344;-73
2022/10/22 10:13:06;;;;;;;;;;;19.70;97.90;;;;;;4956113;29;20353;-70
2022/10/22 10:15:58;;;;;;;;;;;19.90;97.90;;;;;;4922454;29;19982;-70
2022/10/22 10:18:33;;;;;;;;;;;19.90;98.00;;;;;;4954995;28;19926;-69
2022/10/22 10:21:02;;;;;;;;;;;19.90;98.10;;;;;;4940716;29;19930;-70
2022/10/22 10:23:34;;;;;;;;;;;19.60;97.30;;;;;;4937508;29;20288;-70
2022/10/22 10:26:12;;;;;;;;;;;19.90;97.60;;;;;;4923846;29;20001;-73
2022/10/22 10:28:44;;;;;;;;;;;19.90;97.60;;;;;;4923547;29;20021;-67
2022/10/22 10:31:22;;;;;;;;;;;19.80;98.00;;;;;;4943707;28;19995;-67
2022/10/22 10:34:00;;;;;;;;;;;19.60;98.00;;;;;;4964755;28;20351;-68
2022/10/22 10:36:25;;;;;;;;;;;19.80;97.80;;;;;;4962353;28;20384;-66
2022/10/22 10:38:57;;;;;;;;;;;19.70;98.20;;;;;;4959054;28;19933;-66
2022/10/22 10:41:35;;;;;;;;;;;19.80;97.80;;;;;;4955147;29;19926;-68
2022/10/22 10:44:21;;;;;;;;;;;19.90;98.50;;;;;;4940042;29;19926;-65
2022/10/22 10:46:47;;;;;;;;;;;19.60;98.30;;;;;;4937216;29;19926;-68
2022/10/22 10:49:22;;;;;;;;;;;19.60;98.30;;;;;;4956548;28;19927;-64
2022/10/22 10:52:06;;;;;;;;;;;19.60;97.90;;;;;;4938485;29;19933;-64
2022/10/22 10:54:41;;;;;;;;;;;19.60;98.10;;;;;;4956001;29;20328;-65
2022/10/22 10:57:19;;;;;;;;;;;19.50;98.10;;;;;;4936996;29;19986;-63
2022/10/22 10:59:50;;;;;;;;;;;19.80;98.70;;;;;;4936607;29;19927;-65
2022/10/22 11:02:35;;;;;;;;;;;19.50;98.30;;;;;;4958482;28;19933;-68
2022/10/22 11:05:11;;;;;;;;;;;19.50;98.30;;;;;;4955329;29;19927;-65
2022/10/22 11:07:39;;;;;;;;;;;19.50;98.70;;;;;;4937416;29;19926;-66
2022/10/22 11:10:09;;;;;;;;;;;19.20;98.90;;;;;;4956303;28;19927;-68
2022/10/22 11:12:35;;;;;;;;;;;19.50;98.70;;;;;;4956347;28;19937;-64
2022/10/22 11:15:02;;;;;;;;;;;19.40;98.60;;;;;;4939478;29;19973;-64
2022/10/22 11:17:31;;;;;;;;;;;19.50;98.50;;;;;;4939393;29;19958;-66
2022/10/22 11:20:02;;;;;;;;;;;19.20;98.30;;;;;;4938682;28;19941;-64
2022/10/22 11:22:29;;;;;;;;;;;19.30;98.00;;;;;;4953161;29;19981;-63
2022/10/22 11:24:56;;;;;;;;;;;19.40;98.40;;;;;;4937176;29;20009;-63
2022/10/22 11:27:36;;;;;;;;;;;19.70;98.70;;;;;;4944322;28;19933;-64
2022/10/22 11:30:03;;;;;;;;;;;19.60;98.50;;;;;;4965647;28;19927;-64
2022/10/22 11:32:29;;;;;;;;;;;19.60;98.40;;;;;;4944139;28;19931;-65
2022/10/22 11:34:55;;;;;;;;;;;19.40;98.40;;;;;;4955115;29;19934;-64
2022/10/22 11:37:21;;;;;;;;;;;19.40;98.50;;;;;;4938380;29;20009;-65
2022/10/22 11:39:52;;;;;;;;;;;19.60;98.40;;;;;;4937924;29;20082;-65
2022/10/22 11:42:19;;;;;;;;;;;19.40;98.30;;;;;;4953650;28;19940;-65
2022/10/22 11:44:57;;;;;;;;;;;19.60;98.40;;;;;;4953224;28;19933;-63
2022/10/22 11:47:23;;;;;;;;;;;19.60;98.50;;;;;;4953008;28;19926;-65
2022/10/22 11:50:23;;;;;;;;;;;19.50;98.50;;;;;;4937393;29;20008;-65
2022/10/22 11:52:52;;;;;;;;;;;19.30;98.30;;;;;;4858672;29;19932;-64
2022/10/22 11:55:32;;;;;;;;;;;19.40;97.70;;;;;;4858645;29;19935;-65
2022/10/22 11:58:01;;;;;;;;;;;19.30;98.40;;;;;;4843483;29;19971;-65
2022/10/22 12:00:34;;;;;;;;;;;19.30;98.50;;;;;;4859264;29;19971;-65
2022/10/22 12:03:04;;;;;;;;;;;19.20;98.20;;;;;;4841338;29;20581;-66
2022/10/22 12:05:33;;;;;;;;;;;19.30;98.80;;;;;;4824993;29;19932;-64
2022/10/22 12:08:03;;;;;;;;;;;19.20;98.80;;;;;;4809878;29;19932;-64
2022/10/22 12:10:36;;;;;;;;;;;19.20;98.90;;;;;;4810964;29;19939;-65
2022/10/22 12:13:12;;;;;;;;;;;19.00;98.70;;;;;;4826495;29;19925;-65
2022/10/22 12:15:48;;;;;;;;;;;19.00;99.20;;;;;;4811345;29;20033;-64
2022/10/22 12:18:15;;;;;;;;;;;19.20;99.30;;;;;;4811632;29;19928;-67
2022/10/22 12:20:41;;;;;;;;;;;19.10;99.40;;;;;;4826421;29;20031;-66
2022/10/22 12:23:08;;;;;;;;;;;19.20;99.40;;;;;;4841521;29;19924;-65
2022/10/22 12:25:35;;;;;;;;;;;19.10;99.30;;;;;;4841165;29;19944;-64
2022/10/22 12:28:01;;;;;;;;;;;19.30;99.40;;;;;;4874971;29;19982;-65
2022/10/22 12:30:28;;;;;;;;;;;19.10;99.20;;;;;;4951496;28;19926;-71
2022/10/22 12:32:55;;;;;;;;;;;19.50;99.30;;;;;;4955299;29;19927;-65
2022/10/22 12:35:22;;;;;;;;;;;19.50;99.30;;;;;;4955654;29;19941;-64
2022/10/22 12:37:49;;;;;;;;;;;19.40;99.30;;;;;;4955823;29;19933;-65
2022/10/22 12:40:24;;;;;;;;;;;19.60;99.40;;;;;;4955932;29;19969;-64
2022/10/22 12:42:50;;;;;;;;;;;19.40;99.00;;;;;;4954802;29;19953;-64
2022/10/22 12:45:16;;;;;;;;;;;19.20;99.00;;;;;;4954751;29;19933;-65
2022/10/22 12:47:54;;;;;;;;;;;19.40;99.00;;;;;;4955454;29;19933;-67
2022/10/22 12:50:22;;;;;;;;;;;19.20;98.50;;;;;;4955817;29;20382;-64
2022/10/22 12:52:48;;;;;;;;;;;19.30;99.00;;;;;;4955759;29;19950;-68
2022/10/22 12:55:15;;;;;;;;;;;19.70;99.00;;;;;;4955572;29;20020;-65
2022/10/22 12:57:41;;;;;;;;;;;19.40;98.90;;;;;;4938324;29;19927;-66
2022/10/22 13:00:18;;;;;;;;;;;19.60;98.90;;;;;;4956117;29;19973;-66
2022/10/22 13:02:44;;;;;;;;;;;19.60;98.80;;;;;;4955394;29;19954;-65
2022/10/22 13:05:19;;;;;;;;;;;19.30;98.90;;;;;;4955489;29;19926;-65
2022/10/22 13:08:02;;;;;;;;;;;19.60;98.50;;;;;;4955626;29;19953;-67
2022/10/22 13:10:31;;;;;;;;;;;19.60;98.90;;;;;;4952677;29;19927;-66
2022/10/22 13:12:57;;;;;;;;;;;19.50;98.90;;;;;;4954860;29;20360;-64
2022/10/22 13:15:26;;;;;;;;;;;19.70;99.00;;;;;;4954963;29;19970;-64
2022/10/22 13:17:52;;;;;;;;;;;19.50;98.40;;;;;;4936373;29;19923;-65
2022/10/22 13:20:19;;;;;;;;;;;19.40;98.90;;;;;;4932593;29;19997;-66
2022/10/22 13:22:54;;;;;;;;;;;19.90;99.20;;;;;;4953258;29;19927;-64
2022/10/22 13:25:40;;;;;;;;;;;19.40;98.60;;;;;;4955807;28;19930;-63
2022/10/22 13:28:06;;;;;;;;;;;19.70;98.80;;;;;;4954920;29;19970;-68
2022/10/22 13:30:32;;;;;;;;;;;19.80;98.50;;;;;;4952865;29;19973;-67
2022/10/22 13:33:05;;;;;;;;;;;19.80;98.50;;;;;;4953049;29;19978;-69
2022/10/22 13:35:31;;;;;;;;;;;19.90;98.40;;;;;;4938377;29;19926;-65
2022/10/22 13:37:57;;;;;;;;;;;20.00;98.60;;;;;;4955457;29;19961;-64
2022/10/22 13:40:23;;;;;;;;;;;19.70;98.30;;;;;;4954404;29;19966;-64
2022/10/22 13:42:49;;;;;;;;;;;19.80;98.40;;;;;;4954960;28;20296;-68
2022/10/22 13:45:15;;;;;;;;;;;19.70;98.30;;;;;;4937863;29;19922;-64
2022/10/22 13:47:40;;;;;;;;;;;19.80;98.10;;;;;;4955178;29;19927;-64
2022/10/22 13:50:10;;;;;;;;;;;19.70;98.30;;;;;;4937505;29;19930;-65
2022/10/22 13:52:39;;;;;;;;;;;19.70;98.20;;;;;;4938313;29;19926;-64
2022/10/22 13:55:15;;;;;;;;;;;19.60;98.00;;;;;;4938000;29;20017;-66
2022/10/22 13:57:41;;;;;;;;;;;19.70;97.70;;;;;;4940818;29;19933;-66
2022/10/22 14:00:10;;;;;;;;;;;19.90;98.10;;;;;;4967324;28;19926;-71
2022/10/22 14:02:36;;;;;;;;;;;19.80;97.80;;;;;;4940231;29;20300;-68
2022/10/22 14:05:03;;;;;;;;;;;19.90;98.10;;;;;;4941172;29;19927;-71
2022/10/22 14:07:29;;;;;;;;;;;19.80;98.00;;;;;;4958178;29;19930;-64
2022/10/22 14:09:54;;;;;;;;;;;19.60;97.90;;;;;;4957743;29;20274;-67
2022/10/22 14:12:20;;;;;;;;;;;19.80;97.90;;;;;;4939365;29;19926;-68
2022/10/22 14:14:46;;;;;;;;;;;19.90;97.90;;;;;;4925450;29;19982;-64
2022/10/22 14:17:15;;;;;;;;;;;20.00;97.90;;;;;;4941630;29;19965;-66
2022/10/22 14:19:44;;;;;;;;;;;20.00;98.10;;;;;;4940945;29;20387;-64
2022/10/22 14:22:12;;;;;;;;;;;20.20;98.00;;;;;;4956178;29;19927;-64
2022/10/22 14:24:38;;;;;;;;;;;19.80;97.90;;;;;;4924530;29;19930;-65